sensor_id;sensor_type;location;lat;lon;timestamp;P1;durP1;ratioP1;P2;durP2;ratioP2
47367;SDS011;34646;47.964;7.982;2023-06-26T00:01:47;5.50;;;4.27;;
47367;SDS011;34646;47.964;7.982;2023-06-26T00:07:48;5.65;;;4.20;;
47367;SDS011;34646;47.964;7.982;2023-06-26T00:13:49;4.85;;;3.75;;
47367;SDS011;34646;47.964;7.982;2023-06-26T00:19:50;5.05;;;3.88;;
47367;SDS011;34646;47.964;7.982;2023-06-26T00:25:51;5.82;;;4.22;;
47367;SDS011;34646;47.964;7.982;2023-06-26T00:31:52;5.67;;;4.10;;
47367;SDS011;34646;47.964;7.982;2023-06-26T00:37:52;6.47;;;3.90;;
47367;SDS011;34646;47.964;7.982;2023-06-26T00:43:53;5.23;;;4.00;;
47367;SDS011;34646;47.964;7.982;2023-06-26T00:49:54;5.57;;;3.90;;
47367;SDS011;34646;47.964;7.982;2023-06-26T00:55:55;5.97;;;4.03;;
47367;SDS011;34646;47.964;7.982;2023-06-26T01:01:56;5.10;;;3.83;;
47367;SDS011;34646;47.964;7.982;2023-06-26T01:07:57;6.00;;;3.97;;
47367;SDS011;34646;47.964;7.982;2023-06-26T01:13:59;5.57;;;4.40;;
47367;SDS011;34646;47.964;7.982;2023-06-26T01:20:02;4.75;;;3.90;;
47367;SDS011;34646;47.964;7.982;2023-06-26T01:26:10;6.07;;;4.50;;
47367;SDS011;34646;47.964;7.982;2023-06-26T01:32:15;7.97;;;5.05;;
47367;SDS011;34646;47.964;7.982;2023-06-26T01:38:19;5.00;;;4.00;;
47367;SDS011;34646;47.964;7.982;2023-06-26T01:44:31;5.57;;;4.05;;
47367;SDS011;34646;47.964;7.982;2023-06-26T01:50:35;5.07;;;3.97;;
47367;SDS011;34646;47.964;7.982;2023-06-26T01:56:39;5.53;;;3.97;;
47367;SDS011;34646;47.964;7.982;2023-06-26T02:02:42;4.78;;;4.13;;
47367;SDS011;34646;47.964;7.982;2023-06-26T02:08:42;6.10;;;4.18;;
47367;SDS011;34646;47.964;7.982;2023-06-26T02:14:43;7.90;;;4.13;;
47367;SDS011;34646;47.964;7.982;2023-06-26T02:26:46;5.55;;;4.35;;
47367;SDS011;34646;47.964;7.982;2023-06-26T02:32:49;5.70;;;4.03;;
47367;SDS011;34646;47.964;7.982;2023-06-26T02:38:52;6.40;;;3.38;;
47367;SDS011;34646;47.964;7.982;2023-06-26T02:44:53;4.60;;;3.73;;
47367;SDS011;34646;47.964;7.982;2023-06-26T02:50:54;5.60;;;3.92;;
47367;SDS011;34646;47.964;7.982;2023-06-26T02:57:00;5.53;;;4.30;;
47367;SDS011;34646;47.964;7.982;2023-06-26T03:03:03;4.15;;;3.60;;
47367;SDS011;34646;47.964;7.982;2023-06-26T03:09:04;5.43;;;4.05;;
47367;SDS011;34646;47.964;7.982;2023-06-26T03:27:09;5.32;;;3.95;;
47367;SDS011;34646;47.964;7.982;2023-06-26T03:33:10;6.43;;;4.05;;
47367;SDS011;34646;47.964;7.982;2023-06-26T03:39:11;6.38;;;3.75;;
47367;SDS011;34646;47.964;7.982;2023-06-26T03:45:12;5.18;;;3.92;;
47367;SDS011;34646;47.964;7.982;2023-06-26T03:51:14;5.50;;;4.07;;
47367;SDS011;34646;47.964;7.982;2023-06-26T03:57:15;6.00;;;4.10;;
47367;SDS011;34646;47.964;7.982;2023-06-26T04:03:16;5.57;;;4.03;;
47367;SDS011;34646;47.964;7.982;2023-06-26T04:09:17;5.50;;;3.80;;
47367;SDS011;34646;47.964;7.982;2023-06-26T04:15:18;5.00;;;3.85;;
47367;SDS011;34646;47.964;7.982;2023-06-26T04:21:19;8.55;;;4.28;;
47367;SDS011;34646;47.964;7.982;2023-06-26T04:27:20;6.30;;;3.70;;
47367;SDS011;34646;47.964;7.982;2023-06-26T04:33:21;8.20;;;3.90;;
47367;SDS011;34646;47.964;7.982;2023-06-26T04:39:22;6.13;;;4.18;;
47367;SDS011;34646;47.964;7.982;2023-06-26T04:45:22;5.50;;;4.00;;
47367;SDS011;34646;47.964;7.982;2023-06-26T04:51:24;5.17;;;3.70;;
47367;SDS011;34646;47.964;7.982;2023-06-26T04:57:27;5.75;;;4.25;;
47367;SDS011;34646;47.964;7.982;2023-06-26T05:03:27;5.07;;;3.77;;
47367;SDS011;34646;47.964;7.982;2023-06-26T05:09:28;4.43;;;3.57;;
47367;SDS011;34646;47.964;7.982;2023-06-26T05:15:29;7.47;;;4.17;;
47367;SDS011;34646;47.964;7.982;2023-06-26T05:21:30;5.68;;;3.92;;
47367;SDS011;34646;47.964;7.982;2023-06-26T05:27:31;8.45;;;3.95;;
47367;SDS011;34646;47.964;7.982;2023-06-26T05:33:32;8.82;;;4.45;;
47367;SDS011;34646;47.964;7.982;2023-06-26T05:39:36;5.70;;;3.90;;
47367;SDS011;34646;47.964;7.982;2023-06-26T05:45:37;6.40;;;4.05;;
47367;SDS011;34646;47.964;7.982;2023-06-26T05:51:37;4.93;;;3.97;;
47367;SDS011;34646;47.964;7.982;2023-06-26T06:03:40;5.45;;;3.85;;
47367;SDS011;34646;47.964;7.982;2023-06-26T06:09:41;6.18;;;3.75;;
47367;SDS011;34646;47.964;7.982;2023-06-26T06:15:42;5.32;;;3.95;;
47367;SDS011;34646;47.964;7.982;2023-06-26T06:21:42;4.67;;;3.47;;
47367;SDS011;34646;47.964;7.982;2023-06-26T06:27:44;5.60;;;4.00;;
47367;SDS011;34646;47.964;7.982;2023-06-26T06:33:44;6.35;;;3.90;;
47367;SDS011;34646;47.964;7.982;2023-06-26T06:39:45;11.57;;;3.63;;
47367;SDS011;34646;47.964;7.982;2023-06-26T06:45:46;7.43;;;4.13;;
47367;SDS011;34646;47.964;7.982;2023-06-26T06:51:46;5.50;;;3.90;;
47367;SDS011;34646;47.964;7.982;2023-06-26T06:57:47;5.25;;;3.60;;
47367;SDS011;34646;47.964;7.982;2023-06-26T07:03:48;6.07;;;3.53;;
47367;SDS011;34646;47.964;7.982;2023-06-26T07:09:49;7.30;;;4.17;;
47367;SDS011;34646;47.964;7.982;2023-06-26T07:15:50;4.43;;;3.50;;
47367;SDS011;34646;47.964;7.982;2023-06-26T07:21:51;5.97;;;3.60;;
47367;SDS011;34646;47.964;7.982;2023-06-26T07:27:51;5.40;;;3.73;;
47367;SDS011;34646;47.964;7.982;2023-06-26T07:33:52;5.17;;;3.60;;
47367;SDS011;34646;47.964;7.982;2023-06-26T07:39:53;5.20;;;3.75;;
47367;SDS011;34646;47.964;7.982;2023-06-26T07:45:54;5.32;;;3.70;;
47367;SDS011;34646;47.964;7.982;2023-06-26T07:51:54;4.63;;;3.57;;
47367;SDS011;34646;47.964;7.982;2023-06-26T07:57:55;6.63;;;3.80;;
47367;SDS011;34646;47.964;7.982;2023-06-26T08:03:56;4.23;;;3.20;;
47367;SDS011;34646;47.964;7.982;2023-06-26T08:09:56;4.50;;;3.50;;
47367;SDS011;34646;47.964;7.982;2023-06-26T08:15:57;4.53;;;3.50;;
47367;SDS011;34646;47.964;7.982;2023-06-26T08:21:58;4.70;;;3.50;;
47367;SDS011;34646;47.964;7.982;2023-06-26T08:27:58;4.50;;;3.20;;
47367;SDS011;34646;47.964;7.982;2023-06-26T08:33:59;4.10;;;3.37;;
47367;SDS011;34646;47.964;7.982;2023-06-26T08:40:01;4.57;;;3.35;;
47367;SDS011;34646;47.964;7.982;2023-06-26T08:46:02;4.72;;;3.35;;
47367;SDS011;34646;47.964;7.982;2023-06-26T08:52:06;5.30;;;3.55;;
47367;SDS011;34646;47.964;7.982;2023-06-26T08:58:14;4.05;;;2.80;;
47367;SDS011;34646;47.964;7.982;2023-06-26T09:04:15;4.97;;;3.60;;
47367;SDS011;34646;47.964;7.982;2023-06-26T09:10:16;4.18;;;3.33;;
47367;SDS011;34646;47.964;7.982;2023-06-26T09:16:16;4.60;;;3.70;;
47367;SDS011;34646;47.964;7.982;2023-06-26T09:22:17;4.83;;;3.63;;
47367;SDS011;34646;47.964;7.982;2023-06-26T09:28:18;4.18;;;3.03;;
47367;SDS011;34646;47.964;7.982;2023-06-26T09:34:19;5.45;;;3.65;;
47367;SDS011;34646;47.964;7.982;2023-06-26T09:40:20;4.60;;;3.05;;
47367;SDS011;34646;47.964;7.982;2023-06-26T09:46:24;4.23;;;3.33;;
47367;SDS011;34646;47.964;7.982;2023-06-26T09:52:26;4.43;;;3.22;;
47367;SDS011;34646;47.964;7.982;2023-06-26T09:58:30;4.68;;;3.35;;
47367;SDS011;34646;47.964;7.982;2023-06-26T10:04:31;4.10;;;3.20;;
47367;SDS011;34646;47.964;7.982;2023-06-26T10:10:36;4.55;;;2.97;;
47367;SDS011;34646;47.964;7.982;2023-06-26T10:16:37;6.13;;;3.63;;
47367;SDS011;34646;47.964;7.982;2023-06-26T10:22:43;4.43;;;3.40;;
47367;SDS011;34646;47.964;7.982;2023-06-26T10:28:45;4.65;;;3.17;;
47367;SDS011;34646;47.964;7.982;2023-06-26T10:34:50;3.90;;;3.25;;
47367;SDS011;34646;47.964;7.982;2023-06-26T10:40:51;4.50;;;3.30;;
47367;SDS011;34646;47.964;7.982;2023-06-26T10:46:53;3.50;;;2.80;;
47367;SDS011;34646;47.964;7.982;2023-06-26T10:53:07;5.00;;;3.33;;
47367;SDS011;34646;47.964;7.982;2023-06-26T10:59:27;4.43;;;3.38;;
47367;SDS011;34646;47.964;7.982;2023-06-26T11:05:29;4.72;;;3.20;;
47367;SDS011;34646;47.964;7.982;2023-06-26T11:17:52;4.82;;;3.42;;
47367;SDS011;34646;47.964;7.982;2023-06-26T11:23:54;6.95;;;3.22;;
47367;SDS011;34646;47.964;7.982;2023-06-26T11:30:00;8.45;;;3.58;;
47367;SDS011;34646;47.964;7.982;2023-06-26T11:36:10;5.03;;;3.90;;
47367;SDS011;34646;47.964;7.982;2023-06-26T11:42:10;8.20;;;3.63;;
47367;SDS011;34646;47.964;7.982;2023-06-26T11:48:11;4.72;;;3.47;;
47367;SDS011;34646;47.964;7.982;2023-06-26T11:54:12;6.50;;;3.95;;
47367;SDS011;34646;47.964;7.982;2023-06-26T12:00:14;7.13;;;3.53;;
47367;SDS011;34646;47.964;7.982;2023-06-26T12:06:16;6.82;;;3.80;;
47367;SDS011;34646;47.964;7.982;2023-06-26T12:12:17;5.78;;;3.75;;
47367;SDS011;34646;47.964;7.982;2023-06-26T12:18:18;7.97;;;3.90;;
47367;SDS011;34646;47.964;7.982;2023-06-26T12:24:21;7.05;;;3.53;;
47367;SDS011;34646;47.964;7.982;2023-06-26T12:30:22;8.50;;;3.85;;
47367;SDS011;34646;47.964;7.982;2023-06-26T12:36:23;6.20;;;3.60;;
47367;SDS011;34646;47.964;7.982;2023-06-26T12:42:24;6.70;;;3.63;;
47367;SDS011;34646;47.964;7.982;2023-06-26T12:48:39;7.13;;;4.05;;
47367;SDS011;34646;47.964;7.982;2023-06-26T12:54:44;5.72;;;4.07;;
47367;SDS011;34646;47.964;7.982;2023-06-26T13:00:46;5.82;;;4.03;;
47367;SDS011;34646;47.964;7.982;2023-06-26T13:06:47;7.87;;;4.30;;
47367;SDS011;34646;47.964;7.982;2023-06-26T13:12:48;7.90;;;4.45;;
47367;SDS011;34646;47.964;7.982;2023-06-26T13:18:49;5.57;;;3.57;;
47367;SDS011;34646;47.964;7.982;2023-06-26T13:24:49;8.95;;;4.22;;
47367;SDS011;34646;47.964;7.982;2023-06-26T13:30:50;8.17;;;4.27;;
47367;SDS011;34646;47.964;7.982;2023-06-26T13:36:51;9.88;;;4.90;;
47367;SDS011;34646;47.964;7.982;2023-06-26T13:42:52;8.93;;;3.90;;
47367;SDS011;34646;47.964;7.982;2023-06-26T13:48:52;6.53;;;4.30;;
47367;SDS011;34646;47.964;7.982;2023-06-26T13:54:53;6.17;;;3.87;;
47367;SDS011;34646;47.964;7.982;2023-06-26T14:00:54;6.72;;;4.15;;
47367;SDS011;34646;47.964;7.982;2023-06-26T14:06:55;6.63;;;4.30;;
47367;SDS011;34646;47.964;7.982;2023-06-26T14:12:55;8.47;;;4.53;;
47367;SDS011;34646;47.964;7.982;2023-06-26T14:18:56;8.68;;;3.88;;
47367;SDS011;34646;47.964;7.982;2023-06-26T14:24:57;6.30;;;4.40;;
47367;SDS011;34646;47.964;7.982;2023-06-26T14:30:57;7.50;;;4.23;;
47367;SDS011;34646;47.964;7.982;2023-06-26T14:36:58;7.60;;;4.10;;
47367;SDS011;34646;47.964;7.982;2023-06-26T14:42:59;7.15;;;3.83;;
47367;SDS011;34646;47.964;7.982;2023-06-26T14:49:01;6.43;;;3.58;;
47367;SDS011;34646;47.964;7.982;2023-06-26T14:55:02;7.47;;;4.22;;
47367;SDS011;34646;47.964;7.982;2023-06-26T15:01:03;7.22;;;3.78;;
47367;SDS011;34646;47.964;7.982;2023-06-26T15:07:04;6.10;;;3.55;;
47367;SDS011;34646;47.964;7.982;2023-06-26T15:13:05;5.72;;;3.70;;
47367;SDS011;34646;47.964;7.982;2023-06-26T15:19:07;5.68;;;3.83;;
47367;SDS011;34646;47.964;7.982;2023-06-26T15:25:09;7.35;;;4.05;;
47367;SDS011;34646;47.964;7.982;2023-06-26T15:31:10;4.97;;;3.50;;
47367;SDS011;34646;47.964;7.982;2023-06-26T15:37:11;6.23;;;3.77;;
47367;SDS011;34646;47.964;7.982;2023-06-26T15:43:12;5.30;;;3.43;;
47367;SDS011;34646;47.964;7.982;2023-06-26T15:49:12;6.20;;;3.83;;
47367;SDS011;34646;47.964;7.982;2023-06-26T15:55:13;5.57;;;3.70;;
47367;SDS011;34646;47.964;7.982;2023-06-26T16:07:15;5.23;;;3.37;;
47367;SDS011;34646;47.964;7.982;2023-06-26T16:13:17;7.05;;;3.80;;
47367;SDS011;34646;47.964;7.982;2023-06-26T16:19:20;5.80;;;3.38;;
47367;SDS011;34646;47.964;7.982;2023-06-26T16:31:21;10.63;;;3.73;;
47367;SDS011;34646;47.964;7.982;2023-06-26T16:37:22;15.73;;;4.07;;
47367;SDS011;34646;47.964;7.982;2023-06-26T16:43:23;12.93;;;3.77;;
47367;SDS011;34646;47.964;7.982;2023-06-26T16:49:24;7.70;;;3.57;;
47367;SDS011;34646;47.964;7.982;2023-06-26T16:55:25;7.78;;;3.92;;
47367;SDS011;34646;47.964;7.982;2023-06-26T17:01:27;8.82;;;3.72;;
47367;SDS011;34646;47.964;7.982;2023-06-26T17:07:27;5.57;;;3.03;;
47367;SDS011;34646;47.964;7.982;2023-06-26T17:13:29;8.18;;;3.72;;
47367;SDS011;34646;47.964;7.982;2023-06-26T17:19:30;9.00;;;4.03;;
47367;SDS011;34646;47.964;7.982;2023-06-26T17:25:31;8.10;;;3.35;;
47367;SDS011;34646;47.964;7.982;2023-06-26T17:31:33;6.38;;;3.08;;
47367;SDS011;34646;47.964;7.982;2023-06-26T17:37:34;10.15;;;3.38;;
47367;SDS011;34646;47.964;7.982;2023-06-26T17:43:35;9.15;;;3.33;;
47367;SDS011;34646;47.964;7.982;2023-06-26T17:49:36;7.23;;;3.63;;
47367;SDS011;34646;47.964;7.982;2023-06-26T17:55:36;5.63;;;3.53;;
47367;SDS011;34646;47.964;7.982;2023-06-26T18:01:37;7.70;;;3.80;;
47367;SDS011;34646;47.964;7.982;2023-06-26T18:07:38;9.30;;;3.83;;
47367;SDS011;34646;47.964;7.982;2023-06-26T18:13:40;9.23;;;3.80;;
47367;SDS011;34646;47.964;7.982;2023-06-26T18:19:40;12.07;;;4.17;;
47367;SDS011;34646;47.964;7.982;2023-06-26T18:25:41;8.55;;;3.58;;
47367;SDS011;34646;47.964;7.982;2023-06-26T18:31:42;19.97;;;3.53;;
47367;SDS011;34646;47.964;7.982;2023-06-26T18:37:42;14.20;;;3.60;;
47367;SDS011;34646;47.964;7.982;2023-06-26T18:43:43;9.43;;;3.58;;
47367;SDS011;34646;47.964;7.982;2023-06-26T18:49:47;13.07;;;3.92;;
47367;SDS011;34646;47.964;7.982;2023-06-26T18:55:48;7.50;;;4.15;;
47367;SDS011;34646;47.964;7.982;2023-06-26T19:01:49;6.33;;;3.67;;
47367;SDS011;34646;47.964;7.982;2023-06-26T19:07:50;14.30;;;3.80;;
47367;SDS011;34646;47.964;7.982;2023-06-26T19:13:52;9.88;;;2.97;;
47367;SDS011;34646;47.964;7.982;2023-06-26T19:19:53;10.77;;;3.50;;
47367;SDS011;34646;47.964;7.982;2023-06-26T19:25:53;8.77;;;3.55;;
47367;SDS011;34646;47.964;7.982;2023-06-26T19:31:55;6.60;;;3.60;;
47367;SDS011;34646;47.964;7.982;2023-06-26T19:37:59;6.55;;;3.03;;
47367;SDS011;34646;47.964;7.982;2023-06-26T19:44:00;6.82;;;2.75;;
47367;SDS011;34646;47.964;7.982;2023-06-26T19:50:01;6.20;;;3.20;;
47367;SDS011;34646;47.964;7.982;2023-06-26T19:56:02;6.40;;;3.00;;
47367;SDS011;34646;47.964;7.982;2023-06-26T20:02:05;10.43;;;2.80;;
47367;SDS011;34646;47.964;7.982;2023-06-26T20:08:06;5.90;;;2.75;;
47367;SDS011;34646;47.964;7.982;2023-06-26T20:14:07;5.93;;;3.15;;
47367;SDS011;34646;47.964;7.982;2023-06-26T20:20:08;5.90;;;2.50;;
47367;SDS011;34646;47.964;7.982;2023-06-26T20:26:09;4.78;;;2.38;;
47367;SDS011;34646;47.964;7.982;2023-06-26T20:32:10;3.92;;;2.38;;
47367;SDS011;34646;47.964;7.982;2023-06-26T20:38:10;10.20;;;2.50;;
47367;SDS011;34646;47.964;7.982;2023-06-26T20:44:11;4.93;;;2.33;;
47367;SDS011;34646;47.964;7.982;2023-06-26T20:50:12;2.55;;;1.98;;
47367;SDS011;34646;47.964;7.982;2023-06-26T20:56:13;4.05;;;2.38;;
47367;SDS011;34646;47.964;7.982;2023-06-26T21:02:14;5.05;;;2.33;;
47367;SDS011;34646;47.964;7.982;2023-06-26T21:08:15;6.70;;;2.30;;
47367;SDS011;34646;47.964;7.982;2023-06-26T21:14:16;3.40;;;1.87;;
47367;SDS011;34646;47.964;7.982;2023-06-26T21:20:16;4.43;;;2.17;;
47367;SDS011;34646;47.964;7.982;2023-06-26T21:26:17;6.03;;;2.00;;
47367;SDS011;34646;47.964;7.982;2023-06-26T21:32:19;4.75;;;1.65;;
47367;SDS011;34646;47.964;7.982;2023-06-26T21:38:20;3.53;;;2.17;;
47367;SDS011;34646;47.964;7.982;2023-06-26T21:44:20;3.28;;;1.80;;
47367;SDS011;34646;47.964;7.982;2023-06-26T21:50:21;4.17;;;1.80;;
47367;SDS011;34646;47.964;7.982;2023-06-26T21:56:22;2.87;;;1.53;;
47367;SDS011;34646;47.964;7.982;2023-06-26T22:02:23;3.65;;;1.80;;
47367;SDS011;34646;47.964;7.982;2023-06-26T22:08:24;2.80;;;1.83;;
47367;SDS011;34646;47.964;7.982;2023-06-26T22:14:24;3.03;;;1.80;;
47367;SDS011;34646;47.964;7.982;2023-06-26T22:20:25;4.67;;;2.00;;
47367;SDS011;34646;47.964;7.982;2023-06-26T22:26:26;6.43;;;1.50;;
47367;SDS011;34646;47.964;7.982;2023-06-26T22:32:27;3.92;;;2.47;;
47367;SDS011;34646;47.964;7.982;2023-06-26T22:38:27;5.23;;;1.80;;
47367;SDS011;34646;47.964;7.982;2023-06-26T22:44:28;3.60;;;1.73;;
47367;SDS011;34646;47.964;7.982;2023-06-26T22:50:29;3.70;;;1.38;;
47367;SDS011;34646;47.964;7.982;2023-06-26T22:56:29;3.90;;;1.50;;
47367;SDS011;34646;47.964;7.982;2023-06-26T23:02:30;2.57;;;1.77;;
47367;SDS011;34646;47.964;7.982;2023-06-26T23:08:31;6.40;;;1.65;;
47367;SDS011;34646;47.964;7.982;2023-06-26T23:14:31;3.57;;;1.40;;
47367;SDS011;34646;47.964;7.982;2023-06-26T23:20:32;1.73;;;1.00;;
47367;SDS011;34646;47.964;7.982;2023-06-26T23:26:33;2.85;;;1.50;;
47367;SDS011;34646;47.964;7.982;2023-06-26T23:32:38;3.83;;;1.50;;
47367;SDS011;34646;47.964;7.982;2023-06-26T23:38:42;3.42;;;1.30;;
47367;SDS011;34646;47.964;7.982;2023-06-26T23:44:43;2.83;;;1.40;;
47367;SDS011;34646;47.964;7.982;2023-06-26T23:50:48;3.38;;;1.45;;
47367;SDS011;34646;47.964;7.982;2023-06-26T23:56:49;4.28;;;1.52;;
